Time;durP1;ratioP1;P1;durP2;ratioP2;P2;SDS_P1;SDS_P2;PMS_P1;PMS_P2;Temp;Humidity;BMP_temperature;BMP_pressure;BME280_temperature;BME280_humidity;BME280_pressure;Samples;Min_cycle;Max_cycle;Signal;HPM_P1;HPM_P2
2022/02/28 00:01:41;;;;;;;15.68;8.80;;;;;;;;;;5040302;28;20075;-85
2022/02/28 00:04:07;;;;;;;21.02;9.55;;;;;;;;;;5039901;28;20127;-84
2022/02/28 00:06:33;;;;;;;20.02;9.27;;;;;;;;;;5058053;28;20025;-84
2022/02/28 00:08:59;;;;;;;21.40;9.95;;;;;;;;;;5039139;28;20083;-84
2022/02/28 00:11:25;;;;;;;20.13;9.68;;;;;;;;;;5058691;28;20481;-84
2022/02/28 00:13:51;;;;;;;16.33;8.75;;;;;;;;;;5040578;28;20040;-85
2022/02/28 00:16:17;;;;;;;21.42;9.98;;;;;;;;;;5040568;28;20018;-83
2022/02/28 00:18:43;;;;;;;16.80;8.57;;;;;;;;;;5040269;28;20473;-84
2022/02/28 00:21:09;;;;;;;21.48;10.02;;;;;;;;;;5039973;28;20024;-84
2022/02/28 00:23:35;;;;;;;17.65;9.25;;;;;;;;;;5039284;28;20032;-84
2022/02/28 00:26:02;;;;;;;20.70;9.77;;;;;;;;;;5039454;28;20047;-84
2022/02/28 00:28:28;;;;;;;17.75;9.25;;;;;;;;;;5039190;28;20042;-85
2022/02/28 00:30:54;;;;;;;19.63;9.95;;;;;;;;;;5039469;28;20040;-84
2022/02/28 00:33:20;;;;;;;16.85;9.25;;;;;;;;;;5046339;28;20075;-85
2022/02/28 00:35:46;;;;;;;18.38;10.18;;;;;;;;;;5046495;28;20079;-85
2022/02/28 00:38:12;;;;;;;18.58;9.63;;;;;;;;;;5063558;28;20033;-85
2022/02/28 00:40:39;;;;;;;23.73;9.75;;;;;;;;;;5063010;28;20017;-85
2022/02/28 00:43:06;;;;;;;21.20;9.32;;;;;;;;;;5045297;28;20045;-85
2022/02/28 00:45:32;;;;;;;18.98;9.82;;;;;;;;;;5042297;28;20036;-84
2022/02/28 00:47:58;;;;;;;20.98;10.25;;;;;;;;;;5062334;28;20025;-83
2022/02/28 00:50:24;;;;;;;23.65;10.82;;;;;;;;;;5059951;28;20021;-85
2022/02/28 00:52:50;;;;;;;22.45;11.10;;;;;;;;;;5040984;28;20042;-85
2022/02/28 00:55:16;;;;;;;20.02;10.05;;;;;;;;;;5040918;28;20025;-84
2022/02/28 00:57:42;;;;;;;21.40;10.00;;;;;;;;;;5041274;28;20021;-83
2022/02/28 01:00:12;;;;;;;24.10;11.85;;;;;;;;;;5061476;28;20033;-83
2022/02/28 01:02:38;;;;;;;24.20;11.98;;;;;;;;;;5042194;28;20116;-84
2022/02/28 01:05:05;;;;;;;21.02;10.10;;;;;;;;;;5060529;28;20070;-85
2022/02/28 01:07:31;;;;;;;22.33;10.48;;;;;;;;;;5058727;28;20021;-86
2022/02/28 01:09:57;;;;;;;20.23;10.02;;;;;;;;;;5041178;28;20048;-85
2022/02/28 01:12:23;;;;;;;24.73;10.80;;;;;;;;;;5059087;28;20031;-84
2022/02/28 01:14:49;;;;;;;21.00;10.57;;;;;;;;;;5041803;28;20083;-84
2022/02/28 01:17:16;;;;;;;21.40;11.27;;;;;;;;;;5044365;28;20033;-85
2022/02/28 01:19:43;;;;;;;27.27;11.95;;;;;;;;;;5043260;28;20025;-85
2022/02/28 01:22:11;;;;;;;22.52;10.63;;;;;;;;;;5043582;28;20712;-85
2022/02/28 01:24:37;;;;;;;21.30;10.63;;;;;;;;;;5042755;28;20557;-85
2022/02/28 01:27:04;;;;;;;22.48;11.57;;;;;;;;;;5060752;28;20021;-86
2022/02/28 01:29:30;;;;;;;24.98;10.90;;;;;;;;;;5042482;28;20029;-85
2022/02/28 01:31:56;;;;;;;18.88;9.82;;;;;;;;;;5042184;28;20477;-85
2022/02/28 01:34:22;;;;;;;18.95;9.93;;;;;;;;;;5042977;28;20025;-84
2022/02/28 01:36:48;;;;;;;23.02;11.93;;;;;;;;;;5038099;28;20053;-84
2022/02/28 01:39:14;;;;;;;20.27;10.45;;;;;;;;;;5036113;28;20052;-85
2022/02/28 01:41:41;;;;;;;21.95;10.60;;;;;;;;;;5036707;28;20029;-84
2022/02/28 01:44:08;;;;;;;20.45;9.52;;;;;;;;;;5040619;28;20026;-84
2022/02/28 01:46:34;;;;;;;20.25;10.23;;;;;;;;;;5041746;28;20032;-84
2022/02/28 01:49:00;;;;;;;20.48;9.65;;;;;;;;;;5040214;28;20026;-83
2022/02/28 01:51:27;;;;;;;20.42;9.70;;;;;;;;;;5041326;28;20040;-84
2022/02/28 01:53:53;;;;;;;18.75;9.27;;;;;;;;;;5038360;28;20026;-84
2022/02/28 01:56:20;;;;;;;18.75;9.50;;;;;;;;;;5038730;28;20030;-84
2022/02/28 01:58:46;;;;;;;17.92;8.88;;;;;;;;;;5038812;28;20028;-83
2022/02/28 02:01:12;;;;;;;15.65;8.80;;;;;;;;;;5042280;28;20077;-84
2022/02/28 02:03:39;;;;;;;20.55;9.10;;;;;;;;;;5040825;28;20030;-84
2022/02/28 02:06:07;;;;;;;17.63;9.05;;;;;;;;;;5042609;28;20029;-84
2022/02/28 02:08:33;;;;;;;17.67;8.60;;;;;;;;;;5040483;28;20137;-83
2022/02/28 02:11:00;;;;;;;18.10;7.78;;;;;;;;;;5040933;28;20087;-86
2022/02/28 02:13:26;;;;;;;20.92;8.98;;;;;;;;;;5047036;28;20029;-85
2022/02/28 02:15:52;;;;;;;16.65;8.07;;;;;;;;;;5051567;28;20044;-85
2022/02/28 02:18:18;;;;;;;17.75;8.43;;;;;;;;;;5047432;28;20088;-84
2022/02/28 02:20:44;;;;;;;17.02;8.43;;;;;;;;;;5038394;28;20034;-85
2022/02/28 02:23:12;;;;;;;16.00;7.85;;;;;;;;;;5043456;28;20048;-85
2022/02/28 02:25:38;;;;;;;19.85;8.38;;;;;;;;;;5042959;28;20029;-84
2022/02/28 02:28:05;;;;;;;18.52;8.68;;;;;;;;;;5044660;28;20026;-83
2022/02/28 02:30:31;;;;;;;16.80;7.40;;;;;;;;;;5044566;28;20032;-85
2022/02/28 02:32:57;;;;;;;13.50;7.63;;;;;;;;;;5040656;28;20444;-86
2022/02/28 02:35:23;;;;;;;15.82;7.88;;;;;;;;;;5044397;28;20068;-84
2022/02/28 02:37:49;;;;;;;16.17;8.05;;;;;;;;;;5044086;28;20400;-85
2022/02/28 02:40:16;;;;;;;17.60;8.27;;;;;;;;;;5060826;28;20507;-85
2022/02/28 02:42:42;;;;;;;17.30;8.48;;;;;;;;;;5042875;28;20508;-85
2022/02/28 02:45:08;;;;;;;15.55;7.78;;;;;;;;;;5042303;28;20029;-85
2022/02/28 02:47:34;;;;;;;17.80;8.70;;;;;;;;;;5061142;28;20025;-83
2022/02/28 02:50:01;;;;;;;16.88;8.57;;;;;;;;;;5065990;28;20021;-84
2022/02/28 02:52:27;;;;;;;15.40;8.27;;;;;;;;;;5047570;28;20029;-85
2022/02/28 02:54:53;;;;;;;16.70;8.73;;;;;;;;;;5065557;28;20033;-83
2022/02/28 02:57:20;;;;;;;16.60;7.82;;;;;;;;;;5065696;28;20051;-84
2022/02/28 02:59:46;;;;;;;18.13;8.68;;;;;;;;;;5047108;28;20036;-83
2022/02/28 03:02:12;;;;;;;19.45;8.60;;;;;;;;;;5066719;28;20048;-83
2022/02/28 03:04:38;;;;;;;18.25;9.90;;;;;;;;;;5067216;28;20045;-83
2022/02/28 03:07:13;;;;;;;19.60;10.50;;;;;;;;;;5066920;28;20063;-83
2022/02/28 03:09:39;;;;;;;20.38;9.57;;;;;;;;;;5045455;28;20017;-82
2022/02/28 03:12:05;;;;;;;20.25;9.43;;;;;;;;;;5045169;28;20029;-82
2022/02/28 03:14:31;;;;;;;20.15;9.98;;;;;;;;;;5043799;28;20037;-84
2022/02/28 03:16:57;;;;;;;17.52;10.18;;;;;;;;;;5044282;28;20025;-86
2022/02/28 03:19:23;;;;;;;19.77;9.93;;;;;;;;;;5044905;28;20025;-84
2022/02/28 03:21:49;;;;;;;22.33;10.23;;;;;;;;;;5045042;28;20492;-86
2022/02/28 03:24:15;;;;;;;19.77;10.05;;;;;;;;;;5042993;28;20032;-86
2022/02/28 03:26:41;;;;;;;20.30;9.90;;;;;;;;;;5045573;28;20029;-85
2022/02/28 03:29:07;;;;;;;21.65;9.93;;;;;;;;;;5044470;28;20032;-86
2022/02/28 03:31:33;;;;;;;19.85;10.57;;;;;;;;;;5046353;28;20025;-84
2022/02/28 03:33:59;;;;;;;21.52;10.27;;;;;;;;;;5044955;28;20029;-84
2022/02/28 03:36:26;;;;;;;21.45;10.43;;;;;;;;;;5062684;28;20088;-84
2022/02/28 03:38:53;;;;;;;19.80;10.52;;;;;;;;;;5045261;28;20023;-84
2022/02/28 03:41:19;;;;;;;19.73;9.55;;;;;;;;;;5045109;28;20227;-83
2022/02/28 03:43:45;;;;;;;20.63;10.35;;;;;;;;;;5067135;28;20033;-85
2022/02/28 03:46:12;;;;;;;22.95;10.02;;;;;;;;;;5047326;28;20063;-85
2022/02/28 03:48:38;;;;;;;23.02;11.20;;;;;;;;;;5043191;28;20033;-85
2022/02/28 03:51:04;;;;;;;23.13;11.77;;;;;;;;;;5043301;28;20032;-84
2022/02/28 03:53:33;;;;;;;20.65;8.98;;;;;;;;;;5061460;28;20466;-84
2022/02/28 03:56:00;;;;;;;18.60;10.05;;;;;;;;;;5043922;28;20025;-84
2022/02/28 03:58:26;;;;;;;19.50;9.70;;;;;;;;;;5042606;28;20488;-84
2022/02/28 04:00:53;;;;;;;20.35;10.40;;;;;;;;;;5059558;28;20021;-84
2022/02/28 04:03:19;;;;;;;20.38;10.18;;;;;;;;;;5042904;28;20024;-85
2022/02/28 04:05:45;;;;;;;16.42;9.40;;;;;;;;;;5044367;28;20044;-82
2022/02/28 04:08:11;;;;;;;23.33;10.35;;;;;;;;;;5042823;28;20017;-83
2022/02/28 04:10:37;;;;;;;22.05;11.40;;;;;;;;;;5041719;28;20051;-84
2022/02/28 04:13:03;;;;;;;18.33;9.30;;;;;;;;;;5043133;28;20552;-84
2022/02/28 04:15:29;;;;;;;19.85;8.70;;;;;;;;;;5043642;28;20068;-84
2022/02/28 04:17:55;;;;;;;20.98;9.63;;;;;;;;;;5043147;28;20069;-84
2022/02/28 04:20:21;;;;;;;20.20;9.95;;;;;;;;;;5060128;28;20056;-84
2022/02/28 04:22:47;;;;;;;18.83;10.13;;;;;;;;;;5044242;28;20033;-84
2022/02/28 04:25:13;;;;;;;19.77;10.25;;;;;;;;;;5042966;28;20029;-84
2022/02/28 04:27:39;;;;;;;18.17;10.07;;;;;;;;;;5043850;28;20013;-84
2022/02/28 04:30:06;;;;;;;21.23;10.27;;;;;;;;;;5060243;28;20029;-83
2022/02/28 04:32:32;;;;;;;20.63;11.05;;;;;;;;;;5043514;28;20485;-85
2022/02/28 04:34:58;;;;;;;21.42;9.32;;;;;;;;;;5042283;28;20044;-84
2022/02/28 04:37:24;;;;;;;20.67;10.25;;;;;;;;;;5044654;28;20065;-84
2022/02/28 04:39:50;;;;;;;17.83;9.82;;;;;;;;;;5049568;28;20121;-84
2022/02/28 04:42:16;;;;;;;18.90;9.15;;;;;;;;;;5072933;28;21511;-82
2022/02/28 04:44:42;;;;;;;18.60;9.77;;;;;;;;;;5058805;28;20025;-84
2022/02/28 04:47:08;;;;;;;22.00;11.20;;;;;;;;;;5076762;28;20052;-84
2022/02/28 04:49:34;;;;;;;18.92;9.18;;;;;;;;;;5073121;28;20112;-83
2022/02/28 04:52:00;;;;;;;20.02;10.20;;;;;;;;;;5045999;28;20029;-86
2022/02/28 04:54:26;;;;;;;18.23;9.63;;;;;;;;;;5061417;28;20032;-86
2022/02/28 04:56:52;;;;;;;22.30;11.10;;;;;;;;;;5056750;28;20016;-84
2022/02/28 04:59:18;;;;;;;20.70;9.60;;;;;;;;;;5073090;28;20017;-84
2022/02/28 05:01:44;;;;;;;19.98;8.75;;;;;;;;;;5039807;28;20492;-86
2022/02/28 05:04:10;;;;;;;17.30;8.70;;;;;;;;;;5040500;28;20068;-84
2022/02/28 05:06:36;;;;;;;20.40;9.77;;;;;;;;;;5060848;28;20045;-85
2022/02/28 05:09:02;;;;;;;19.30;9.30;;;;;;;;;;5042454;28;20017;-85
2022/02/28 05:11:28;;;;;;;18.63;8.75;;;;;;;;;;5054813;28;20372;-84
2022/02/28 05:13:54;;;;;;;16.92;8.80;;;;;;;;;;5036223;28;20089;-85
2022/02/28 05:16:20;;;;;;;20.75;10.18;;;;;;;;;;5035926;28;20021;-86
2022/02/28 05:18:46;;;;;;;20.63;10.45;;;;;;;;;;5038240;28;20088;-86
2022/02/28 05:21:14;;;;;;;19.42;9.60;;;;;;;;;;5060182;28;20110;-86
2022/02/28 05:23:40;;;;;;;18.67;9.30;;;;;;;;;;5059711;28;20151;-82
2022/02/28 05:26:06;;;;;;;18.40;9.18;;;;;;;;;;5040643;28;20080;-86
2022/02/28 05:28:33;;;;;;;15.52;8.88;;;;;;;;;;5039348;28;20108;-85
2022/02/28 05:30:59;;;;;;;14.93;9.07;;;;;;;;;;5038924;28;20048;-85
2022/02/28 05:33:25;;;;;;;13.82;8.07;;;;;;;;;;5041014;28;20028;-85
2022/02/28 05:35:51;;;;;;;18.75;8.77;;;;;;;;;;5047493;28;20045;-85
2022/02/28 05:38:17;;;;;;;19.17;8.18;;;;;;;;;;5051621;28;20022;-84
2022/02/28 05:40:43;;;;;;;16.58;9.20;;;;;;;;;;5053183;28;20038;-84
2022/02/28 05:43:09;;;;;;;16.75;8.40;;;;;;;;;;5048673;28;20018;-85
2022/02/28 05:45:37;;;;;;;18.13;9.02;;;;;;;;;;5047211;28;20537;-85
2022/02/28 05:48:04;;;;;;;18.85;9.65;;;;;;;;;;5046235;28;20501;-85
2022/02/28 05:50:30;;;;;;;16.40;9.07;;;;;;;;;;5048366;28;20474;-85
2022/02/28 05:52:56;;;;;;;15.65;7.50;;;;;;;;;;5046396;28;20029;-86
2022/02/28 05:55:22;;;;;;;18.70;8.52;;;;;;;;;;5043149;28;20098;-85
2022/02/28 05:57:48;;;;;;;20.23;9.35;;;;;;;;;;5044746;28;20085;-86
2022/02/28 06:00:15;;;;;;;18.27;8.68;;;;;;;;;;5040457;28;20025;-87
2022/02/28 06:02:41;;;;;;;19.27;8.93;;;;;;;;;;5039758;28;20520;-85
2022/02/28 06:05:07;;;;;;;17.75;9.23;;;;;;;;;;5041423;28;20052;-85
2022/02/28 06:07:34;;;;;;;15.25;8.23;;;;;;;;;;5037804;28;20049;-85
2022/02/28 06:10:00;;;;;;;16.70;9.20;;;;;;;;;;5039035;28;20029;-85
2022/02/28 06:12:26;;;;;;;16.38;8.23;;;;;;;;;;5038533;28;20022;-86
2022/02/28 06:14:52;;;;;;;20.50;9.63;;;;;;;;;;5034849;28;20045;-86
2022/02/28 06:17:18;;;;;;;17.55;9.35;;;;;;;;;;5034226;28;20091;-85
2022/02/28 06:19:46;;;;;;;17.17;8.88;;;;;;;;;;5034658;28;20120;-87
2022/02/28 06:22:12;;;;;;;15.98;8.93;;;;;;;;;;5034172;28;20341;-85
2022/02/28 06:24:38;;;;;;;17.35;8.85;;;;;;;;;;5036020;28;20112;-87
2022/02/28 06:27:04;;;;;;;17.75;8.38;;;;;;;;;;5034883;28;20045;-87
2022/02/28 06:29:30;;;;;;;17.02;8.75;;;;;;;;;;5032844;28;20087;-85
2022/02/28 06:31:56;;;;;;;16.65;8.23;;;;;;;;;;5035008;28;20033;-86
2022/02/28 06:34:22;;;;;;;16.50;8.13;;;;;;;;;;5035438;28;20066;-85
2022/02/28 06:36:48;;;;;;;16.63;8.27;;;;;;;;;;5036859;28;20048;-85
2022/02/28 06:39:14;;;;;;;19.52;9.23;;;;;;;;;;5026531;28;20039;-84
2022/02/28 06:41:40;;;;;;;17.85;8.57;;;;;;;;;;5030486;28;20033;-85
2022/02/28 06:44:07;;;;;;;15.10;8.70;;;;;;;;;;5033816;28;20036;-87
2022/02/28 06:46:34;;;;;;;16.17;8.77;;;;;;;;;;5036895;28;20055;-86
2022/02/28 06:49:00;;;;;;;16.25;8.52;;;;;;;;;;5036489;28;20385;-86
2022/02/28 06:51:26;;;;;;;15.55;8.13;;;;;;;;;;5034034;28;20033;-87
2022/02/28 06:53:52;;;;;;;17.23;7.80;;;;;;;;;;5036144;28;20091;-86
2022/02/28 06:56:18;;;;;;;17.50;9.57;;;;;;;;;;5032411;28;20029;-86
2022/02/28 06:58:44;;;;;;;16.08;9.15;;;;;;;;;;5032215;28;20021;-85
2022/02/28 07:01:11;;;;;;;17.95;8.52;;;;;;;;;;5029042;28;20037;-85
2022/02/28 07:03:38;;;;;;;17.85;9.25;;;;;;;;;;5035901;28;20449;-86
2022/02/28 07:06:04;;;;;;;13.95;7.72;;;;;;;;;;5039092;28;20026;-85
2022/02/28 07:08:31;;;;;;;15.15;8.05;;;;;;;;;;5036078;28;20284;-84
2022/02/28 07:10:57;;;;;;;16.52;8.07;;;;;;;;;;5041748;28;20029;-84
2022/02/28 07:13:24;;;;;;;16.13;7.70;;;;;;;;;;5045801;28;20026;-84
2022/02/28 07:15:52;;;;;;;15.23;8.23;;;;;;;;;;5044512;28;20520;-85
2022/02/28 07:18:18;;;;;;;15.90;8.50;;;;;;;;;;5043810;28;20057;-85
2022/02/28 07:20:44;;;;;;;17.70;8.52;;;;;;;;;;5044511;28;20033;-85
2022/02/28 07:23:10;;;;;;;13.55;7.97;;;;;;;;;;5043264;28;20022;-83
2022/02/28 07:25:36;;;;;;;15.13;7.75;;;;;;;;;;5042635;28;20025;-84
2022/02/28 07:28:03;;;;;;;15.52;7.60;;;;;;;;;;5043014;28;20026;-84
2022/02/28 07:30:30;;;;;;;15.90;8.27;;;;;;;;;;5041486;28;20025;-83
2022/02/28 07:32:56;;;;;;;15.30;9.13;;;;;;;;;;5042340;28;20036;-85
2022/02/28 07:35:22;;;;;;;14.27;7.95;;;;;;;;;;5042852;28;20025;-84
2022/02/28 07:37:48;;;;;;;15.77;8.85;;;;;;;;;;5026569;28;20026;-83
2022/02/28 07:40:14;;;;;;;15.52;8.43;;;;;;;;;;5043313;28;20045;-84
2022/02/28 07:42:40;;;;;;;13.00;7.82;;;;;;;;;;5044116;28;20094;-84
2022/02/28 07:45:08;;;;;;;15.70;8.23;;;;;;;;;;5043391;28;20032;-84
2022/02/28 07:47:34;;;;;;;13.00;7.78;;;;;;;;;;5026402;28;20025;-84
2022/02/28 07:50:00;;;;;;;14.52;8.13;;;;;;;;;;5025303;28;20021;-85
2022/02/28 07:52:26;;;;;;;15.07;8.57;;;;;;;;;;5043031;28;20036;-85
2022/02/28 07:54:52;;;;;;;16.98;8.43;;;;;;;;;;5043428;28;20029;-85
2022/02/28 07:57:18;;;;;;;24.75;14.30;;;;;;;;;;5022548;28;20021;-85
2022/02/28 07:59:44;;;;;;;13.35;8.45;;;;;;;;;;5025485;28;20112;-85
2022/02/28 08:02:10;;;;;;;26.23;13.98;;;;;;;;;;5024216;28;20029;-83
2022/02/28 08:04:37;;;;;;;25.25;13.77;;;;;;;;;;5043480;28;20021;-83
2022/02/28 08:07:03;;;;;;;26.38;15.07;;;;;;;;;;5022913;28;20040;-84
2022/02/28 08:09:30;;;;;;;32.30;17.75;;;;;;;;;;5041250;28;20044;-84
2022/02/28 08:11:56;;;;;;;19.40;11.60;;;;;;;;;;5041236;28;20032;-82
2022/02/28 08:14:22;;;;;;;32.92;16.10;;;;;;;;;;5041938;28;20568;-83
2022/02/28 08:16:48;;;;;;;19.80;10.20;;;;;;;;;;5042130;28;20037;-83
2022/02/28 08:19:15;;;;;;;11.93;7.53;;;;;;;;;;5027088;28;20056;-86
2022/02/28 08:21:42;;;;;;;13.27;7.60;;;;;;;;;;5044833;28;20025;-83
2022/02/28 08:24:08;;;;;;;13.98;7.28;;;;;;;;;;5044530;28;20029;-87
2022/02/28 08:26:34;;;;;;;11.23;6.47;;;;;;;;;;5044678;28;20025;-84
2022/02/28 08:29:00;;;;;;;13.13;7.95;;;;;;;;;;5026206;28;20040;-82
2022/02/28 08:31:26;;;;;;;12.73;8.40;;;;;;;;;;5026740;28;20104;-86
2022/02/28 08:33:52;;;;;;;13.88;8.15;;;;;;;;;;5025442;28;20092;-88
2022/02/28 08:36:18;;;;;;;12.07;7.15;;;;;;;;;;5032952;28;20473;-83
2022/02/28 08:38:44;;;;;;;10.80;6.78;;;;;;;;;;5044584;28;20040;-84
2022/02/28 08:41:10;;;;;;;12.70;6.60;;;;;;;;;;5043320;28;20036;-81
2022/02/28 08:43:36;;;;;;;12.65;6.63;;;;;;;;;;5041935;28;20025;-84
2022/02/28 08:46:04;;;;;;;11.93;7.10;;;;;;;;;;5044121;28;20030;-81
2022/02/28 08:48:30;;;;;;;12.25;7.40;;;;;;;;;;5045843;28;20021;-84
2022/02/28 08:50:56;;;;;;;10.65;6.20;;;;;;;;;;5027264;28;20052;-83
2022/02/28 08:53:22;;;;;;;12.82;7.20;;;;;;;;;;5024689;28;20025;-84
2022/02/28 08:55:48;;;;;;;13.90;7.13;;;;;;;;;;5038210;28;20026;-81
2022/02/28 08:58:14;;;;;;;12.52;7.18;;;;;;;;;;5055792;28;20081;-83
2022/02/28 09:00:40;;;;;;;11.15;6.72;;;;;;;;;;5046162;28;20142;-85
2022/02/28 09:03:07;;;;;;;11.98;6.78;;;;;;;;;;5044180;28;20029;-85
2022/02/28 09:05:36;;;;;;;11.23;6.32;;;;;;;;;;5045150;28;20026;-85
2022/02/28 09:08:03;;;;;;;10.07;5.75;;;;;;;;;;5044541;28;20088;-86
2022/02/28 09:10:29;;;;;;;11.98;7.00;;;;;;;;;;5045113;28;20048;-84
2022/02/28 09:12:55;;;;;;;11.88;6.47;;;;;;;;;;5030406;28;20077;-85
2022/02/28 09:15:21;;;;;;;10.90;6.00;;;;;;;;;;5024263;28;20036;-84
2022/02/28 09:17:47;;;;;;;8.77;5.50;;;;;;;;;;5029446;28;20108;-85
2022/02/28 09:20:13;;;;;;;10.65;5.95;;;;;;;;;;5040368;28;20052;-84
2022/02/28 09:22:40;;;;;;;13.02;6.32;;;;;;;;;;5042118;28;20113;-82
2022/02/28 09:25:07;;;;;;;10.55;5.25;;;;;;;;;;5041381;28;20018;-83
2022/02/28 09:27:33;;;;;;;9.77;5.80;;;;;;;;;;5029501;28;20053;-85
2022/02/28 09:29:59;;;;;;;13.20;5.82;;;;;;;;;;5043623;28;20025;-83
2022/02/28 09:32:25;;;;;;;8.73;4.72;;;;;;;;;;5042072;28;20085;-85
2022/02/28 09:34:51;;;;;;;9.98;5.05;;;;;;;;;;5043536;28;20037;-84
2022/02/28 09:37:18;;;;;;;9.68;4.88;;;;;;;;;;5044203;28;20429;-85
2022/02/28 09:39:44;;;;;;;7.85;4.45;;;;;;;;;;5060264;28;20474;-85
2022/02/28 09:42:10;;;;;;;9.50;4.45;;;;;;;;;;5062163;28;20056;-84
2022/02/28 09:44:37;;;;;;;10.70;5.63;;;;;;;;;;5046181;28;20022;-84
2022/02/28 09:47:04;;;;;;;11.05;5.93;;;;;;;;;;5068745;28;20025;-84
2022/02/28 09:49:30;;;;;;;10.55;5.43;;;;;;;;;;5062713;28;20033;-83
2022/02/28 09:51:56;;;;;;;12.52;5.57;;;;;;;;;;5043915;28;20021;-84
2022/02/28 09:54:22;;;;;;;9.80;5.18;;;;;;;;;;5061943;28;20055;-82
2022/02/28 09:56:48;;;;;;;14.15;6.75;;;;;;;;;;5066623;28;20029;-83
2022/02/28 09:59:14;;;;;;;11.38;6.05;;;;;;;;;;5046227;28;20089;-83
2022/02/28 10:01:47;;;;;;;10.90;5.78;;;;;;;;;;5062538;28;20036;-82
2022/02/28 10:04:14;;;;;;;13.23;7.05;;;;;;;;;;5065430;28;20029;-83
2022/02/28 10:06:40;;;;;;;12.20;6.10;;;;;;;;;;5046290;28;20389;-83
2022/02/28 10:09:08;;;;;;;12.25;6.47;;;;;;;;;;5046362;28;20078;-83
2022/02/28 10:11:39;;;;;;;14.07;6.57;;;;;;;;;;5065846;28;20021;-83
2022/02/28 10:14:06;;;;;;;12.77;6.95;;;;;;;;;;5064683;28;20037;-84
2022/02/28 10:16:37;;;;;;;11.45;6.22;;;;;;;;;;5047558;28;20013;-83
2022/02/28 10:19:04;;;;;;;12.15;6.10;;;;;;;;;;5047601;28;20100;-83
2022/02/28 10:21:39;;;;;;;10.07;5.55;;;;;;;;;;5045567;28;20093;-84
2022/02/28 10:24:07;;;;;;;12.57;6.65;;;;;;;;;;5063428;28;20024;-84
2022/02/28 10:26:43;;;;;;;10.80;6.25;;;;;;;;;;5062503;28;20079;-83
2022/02/28 10:29:10;;;;;;;11.85;6.95;;;;;;;;;;5062414;28;20027;-83
2022/02/28 10:31:40;;;;;;;12.80;6.07;;;;;;;;;;5061668;28;20044;-83
2022/02/28 10:34:14;;;;;;;11.77;6.47;;;;;;;;;;5064218;28;20031;-84
2022/02/28 10:36:43;;;;;;;14.60;7.43;;;;;;;;;;5053396;28;20466;-83
2022/02/28 10:39:10;;;;;;;12.20;6.80;;;;;;;;;;5045324;28;20022;-84
2022/02/28 10:41:37;;;;;;;12.02;6.10;;;;;;;;;;5022929;28;20449;-83
2022/02/28 10:44:04;;;;;;;12.30;6.45;;;;;;;;;;5028927;28;20278;-84
2022/02/28 10:46:36;;;;;;;14.98;7.70;;;;;;;;;;5032043;28;20397;-84
2022/02/28 10:49:15;;;;;;;12.13;6.82;;;;;;;;;;5028011;28;20022;-82
2022/02/28 10:51:52;;;;;;;13.20;7.32;;;;;;;;;;5030843;28;20029;-83
2022/02/28 10:54:25;;;;;;;12.48;6.47;;;;;;;;;;5042472;28;20068;-85
2022/02/28 10:56:54;;;;;;;13.80;8.38;;;;;;;;;;5048490;28;20040;-85
2022/02/28 10:59:21;;;;;;;12.73;6.80;;;;;;;;;;5031666;28;20133;-83
2022/02/28 11:01:48;;;;;;;13.00;7.70;;;;;;;;;;5032671;28;20034;-85
2022/02/28 11:04:14;;;;;;;12.57;7.93;;;;;;;;;;5032382;28;20022;-86
2022/02/28 11:06:42;;;;;;;13.32;7.47;;;;;;;;;;5051337;28;20084;-85
2022/02/28 11:09:08;;;;;;;13.55;7.80;;;;;;;;;;5033415;28;20025;-85
2022/02/28 11:11:34;;;;;;;13.38;6.88;;;;;;;;;;5030397;28;20059;-84
2022/02/28 11:14:01;;;;;;;11.95;7.32;;;;;;;;;;5048269;28;20017;-83
2022/02/28 11:16:28;;;;;;;12.35;7.40;;;;;;;;;;5048185;28;20384;-83
2022/02/28 11:18:54;;;;;;;12.63;6.82;;;;;;;;;;5047272;28;20168;-84
2022/02/28 11:21:20;;;;;;;11.15;6.85;;;;;;;;;;5048640;28;20029;-84
2022/02/28 11:23:47;;;;;;;11.43;6.75;;;;;;;;;;5047719;28;20037;-85
2022/02/28 11:26:14;;;;;;;12.75;6.90;;;;;;;;;;5028636;28;20021;-84
2022/02/28 11:28:40;;;;;;;11.60;6.38;;;;;;;;;;5032565;28;20024;-85
2022/02/28 11:31:14;;;;;;;16.95;7.63;;;;;;;;;;5032880;28;20035;-84
2022/02/28 11:33:50;;;;;;;13.63;7.13;;;;;;;;;;5030943;28;20025;-84
2022/02/28 11:36:16;;;;;;;11.02;6.10;;;;;;;;;;5033577;28;20037;-85
2022/02/28 11:38:43;;;;;;;12.68;7.40;;;;;;;;;;5048562;28;20033;-84
2022/02/28 11:41:09;;;;;;;11.55;6.32;;;;;;;;;;5045454;28;20021;-84
2022/02/28 11:43:45;;;;;;;14.07;6.85;;;;;;;;;;5031190;28;20033;-83
2022/02/28 11:46:13;;;;;;;8.98;5.57;;;;;;;;;;5046343;28;20033;-84
2022/02/28 11:48:42;;;;;;;11.77;5.70;;;;;;;;;;5056935;28;20081;-83
2022/02/28 11:51:09;;;;;;;10.98;6.35;;;;;;;;;;5056908;28;20057;-84
2022/02/28 11:53:41;;;;;;;11.68;5.63;;;;;;;;;;5039398;28;20033;-84
2022/02/28 11:56:16;;;;;;;9.32;5.40;;;;;;;;;;5048729;28;20094;-84
2022/02/28 11:58:55;;;;;;;10.68;5.72;;;;;;;;;;5044290;28;20038;-84
2022/02/28 12:01:41;;;;;;;9.60;5.25;;;;;;;;;;5041880;28;20037;-84
2022/02/28 12:04:07;;;;;;;10.15;5.05;;;;;;;;;;5039645;28;20096;-83
2022/02/28 12:06:53;;;;;;;12.27;5.50;;;;;;;;;;5044498;28;20053;-84
2022/02/28 12:12:19;;;;;;;9.05;5.35;;;;;;;;;;5046110;28;20108;-84
2022/02/28 12:14:59;;;;;;;9.15;5.03;;;;;;;;;;5026588;28;20040;-83
2022/02/28 12:17:31;;;;;;;10.93;5.38;;;;;;;;;;5031104;28;20025;-84
2022/02/28 12:20:18;;;;;;;8.70;4.83;;;;;;;;;;5052387;28;20017;-83
2022/02/28 12:22:53;;;;;;;9.68;5.53;;;;;;;;;;5030240;28;20037;-84
2022/02/28 12:25:45;;;;;;;12.82;6.80;;;;;;;;;;5030042;28;20037;-84
2022/02/28 12:28:26;;;;;;;13.13;7.25;;;;;;;;;;5005553;28;20026;-84
2022/02/28 12:31:18;;;;;;;9.98;4.93;;;;;;;;;;5041084;28;20010;-84
2022/02/28 12:33:44;;;;;;;9.77;6.13;;;;;;;;;;5037043;28;20037;-83
2022/02/28 12:36:17;;;;;;;11.27;8.43;;;;;;;;;;5049934;28;20059;-84
2022/02/28 12:38:51;;;;;;;12.05;7.18;;;;;;;;;;5064359;28;20025;-83
2022/02/28 12:41:17;;;;;;;10.30;6.15;;;;;;;;;;5045324;28;20044;-83
2022/02/28 12:43:44;;;;;;;10.95;6.45;;;;;;;;;;5061681;28;20036;-86
2022/02/28 12:46:12;;;;;;;10.48;5.78;;;;;;;;;;5038976;28;20052;-82
2022/02/28 12:48:39;;;;;;;9.98;5.65;;;;;;;;;;5039796;28;20091;-83
2022/02/28 12:51:06;;;;;;;8.88;5.28;;;;;;;;;;5043366;28;20298;-83
2022/02/28 12:53:36;;;;;;;8.90;4.97;;;;;;;;;;5059146;28;20074;-86
2022/02/28 12:56:09;;;;;;;9.40;5.07;;;;;;;;;;5038182;28;20123;-83
2022/02/28 12:58:40;;;;;;;7.85;4.53;;;;;;;;;;5058191;28;20048;-84
2022/02/28 13:01:07;;;;;;;13.55;6.80;;;;;;;;;;5055791;28;20033;-85
2022/02/28 13:03:37;;;;;;;9.27;4.82;;;;;;;;;;5037442;28;20249;-84
2022/02/28 13:06:03;;;;;;;9.95;5.72;;;;;;;;;;5056801;28;20072;-84
2022/02/28 13:08:29;;;;;;;8.88;5.10;;;;;;;;;;5036040;28;20063;-84
2022/02/28 13:11:15;;;;;;;11.27;6.10;;;;;;;;;;5056198;28;20314;-85
2022/02/28 13:13:42;;;;;;;12.75;5.72;;;;;;;;;;5040853;28;20031;-85
2022/02/28 13:16:09;;;;;;;9.27;5.45;;;;;;;;;;5040046;28;20297;-83
2022/02/28 13:18:35;;;;;;;9.60;5.15;;;;;;;;;;5058760;28;20401;-84
2022/02/28 13:21:02;;;;;;;8.55;4.65;;;;;;;;;;5039773;28;20086;-83
2022/02/28 13:23:28;;;;;;;8.55;4.80;;;;;;;;;;5042007;28;20029;-86
2022/02/28 13:25:55;;;;;;;9.32;5.15;;;;;;;;;;5040153;28;20029;-85
2022/02/28 13:28:28;;;;;;;8.48;4.95;;;;;;;;;;5058323;28;20021;-84
2022/02/28 13:30:56;;;;;;;8.52;4.78;;;;;;;;;;5057199;28;20469;-84
2022/02/28 13:33:22;;;;;;;8.05;4.70;;;;;;;;;;5037595;28;20116;-86
2022/02/28 13:35:49;;;;;;;9.77;4.63;;;;;;;;;;5055880;28;20497;-85
2022/02/28 13:38:19;;;;;;;7.50;4.38;;;;;;;;;;5039929;28;20465;-84
2022/02/28 13:40:45;;;;;;;8.95;4.60;;;;;;;;;;5039963;28;20195;-86
2022/02/28 13:43:11;;;;;;;9.63;4.80;;;;;;;;;;5038295;28;20122;-85
2022/02/28 13:45:40;;;;;;;7.82;4.43;;;;;;;;;;5058731;28;20025;-85
2022/02/28 13:48:22;;;;;;;10.05;5.07;;;;;;;;;;5058957;28;20087;-86
2022/02/28 13:50:50;;;;;;;8.68;4.95;;;;;;;;;;5060539;28;20392;-85
2022/02/28 13:53:16;;;;;;;10.25;5.20;;;;;;;;;;5039752;28;20056;-85
2022/02/28 13:55:47;;;;;;;7.80;4.85;;;;;;;;;;5057540;28;20059;-84
2022/02/28 13:58:13;;;;;;;16.92;11.82;;;;;;;;;;5059442;28;20021;-85
2022/02/28 14:00:56;;;;;;;17.15;13.80;;;;;;;;;;5038207;28;20033;-84
2022/02/28 14:03:27;;;;;;;12.48;6.63;;;;;;;;;;5038427;28;20029;-84
2022/02/28 14:05:54;;;;;;;11.40;6.75;;;;;;;;;;5038794;28;20116;-84
2022/02/28 14:08:21;;;;;;;9.90;4.93;;;;;;;;;;5035825;28;20067;-85
2022/02/28 14:10:47;;;;;;;9.05;4.97;;;;;;;;;;5063788;28;20477;-84
2022/02/28 14:13:19;;;;;;;12.52;5.82;;;;;;;;;;5061657;28;20040;-86
2022/02/28 14:15:46;;;;;;;11.77;5.28;;;;;;;;;;5031726;28;20123;-87
2022/02/28 14:18:12;;;;;;;9.40;5.50;;;;;;;;;;5060031;28;20025;-87
2022/02/28 14:20:39;;;;;;;9.50;4.85;;;;;;;;;;5061460;28;20056;-86
2022/02/28 14:23:16;;;;;;;9.05;4.95;;;;;;;;;;5043753;28;20044;-83
2022/02/28 14:25:43;;;;;;;8.88;5.30;;;;;;;;;;5045357;28;20067;-83
2022/02/28 14:28:15;;;;;;;13.13;7.07;;;;;;;;;;5047787;28;20021;-84
2022/02/28 14:30:41;;;;;;;10.00;5.65;;;;;;;;;;5044725;28;20103;-85
2022/02/28 14:33:09;;;;;;;11.05;6.40;;;;;;;;;;5043074;28;20097;-85